Time;durP1;ratioP1;P1;durP2;ratioP2;P2;SDS_P1;SDS_P2;PMS_P1;PMS_P2;Temp;Humidity;BMP_temperature;BMP_pressure;BME280_temperature;BME280_humidity;BME280_pressure;Samples;Min_cycle;Max_cycle;Signal;HPM_P1;HPM_P2
2023/07/26 00:01:53;;;;;;;5.55;3.88;;;;;;;14.28;87.95;97620.84;5082333;28;20497;-72
2023/07/26 00:04:19;;;;;;;8.10;4.18;;;;;;;14.41;86.94;97611.28;5085561;28;20036;-73
2023/07/26 00:06:44;;;;;;;7.68;4.40;;;;;;;14.42;86.66;97612.94;5083689;28;20032;-72
2023/07/26 00:09:10;;;;;;;6.20;3.80;;;;;;;14.52;86.47;97623.66;5078701;28;20031;-72
2023/07/26 00:11:36;;;;;;;6.88;4.03;;;;;;;14.60;85.93;97625.78;5080933;28;20127;-71
2023/07/26 00:14:03;;;;;;;6.45;3.63;;;;;;;14.69;85.46;97623.25;5084311;28;20076;-72
2023/07/26 00:16:30;;;;;;;6.65;4.03;;;;;;;14.79;84.98;97620.47;5083371;28;20032;-71
2023/07/26 00:18:55;;;;;;;5.57;4.00;;;;;;;14.69;85.38;97629.50;5073741;28;20455;-70
2023/07/26 00:21:21;;;;;;;4.38;3.97;;;;;;;14.34;87.02;97627.06;5083250;28;20059;-70
2023/07/26 00:23:46;;;;;;;6.38;4.07;;;;;;;14.42;85.98;97629.19;5068205;28;20464;-70
2023/07/26 00:26:11;;;;;;;5.43;3.70;;;;;;;13.93;88.27;97641.94;5064754;28;20044;-71
2023/07/26 00:28:37;;;;;;;6.50;4.40;;;;;;;13.92;89.73;97645.72;5085100;28;20122;-70
2023/07/26 00:31:02;;;;;;;7.18;4.82;;;;;;;13.86;90.49;97645.72;5066679;28;20032;-74
2023/07/26 00:33:28;;;;;;;6.78;4.65;;;;;;;13.99;90.71;97654.34;5061379;28;20028;-73
2023/07/26 00:35:53;;;;;;;7.45;4.50;;;;;;;14.07;89.95;97659.19;5059827;28;20550;-72
2023/07/26 00:38:18;;;;;;;8.40;4.25;;;;;;;14.05;90.00;97655.94;5083105;28;20032;-72
2023/07/26 00:40:44;;;;;;;7.05;4.20;;;;;;;14.16;89.52;97641.25;5066102;28;20398;-74
2023/07/26 00:43:09;;;;;;;7.40;4.57;;;;;;;14.43;89.32;97652.47;5044657;28;20077;-71
2023/07/26 00:45:37;;;;;;;8.38;4.90;;;;;;;14.56;88.62;97661.84;5060248;28;20036;-72
2023/07/26 00:48:02;;;;;;;6.50;4.32;;;;;;;14.61;87.17;97659.91;5064852;28;20052;-73
2023/07/26 00:50:28;;;;;;;6.57;4.45;;;;;;;14.61;86.79;97661.81;5049173;28;20058;-70
2023/07/26 00:52:54;;;;;;;5.38;4.00;;;;;;;14.61;87.13;97657.19;5061066;28;20036;-71
2023/07/26 00:55:19;;;;;;;5.32;4.28;;;;;;;14.68;86.82;97665.03;5059940;28;20505;-71
2023/07/26 00:57:46;;;;;;;6.25;4.47;;;;;;;14.70;86.23;97669.06;5064372;28;20032;-71
2023/07/26 01:00:12;;;;;;;6.45;4.07;;;;;;;14.36;86.02;97662.81;5082634;28;20035;-71
2023/07/26 01:02:37;;;;;;;7.95;4.15;;;;;;;14.32;87.45;97667.16;5086436;28;20111;-71
2023/07/26 01:05:04;;;;;;;8.52;4.45;;;;;;;14.21;88.37;97669.09;5048733;28;20131;-71
2023/07/26 01:07:50;;;;;;;7.00;4.65;;;;;;;14.11;88.57;97677.28;5077622;28;20022;-71
2023/07/26 01:10:29;;;;;;;7.35;4.45;;;;;;;14.18;88.51;97693.22;5077440;28;20135;-72
2023/07/26 01:13:01;;;;;;;6.82;4.30;;;;;;;14.10;89.82;97680.25;5044954;28;20468;-71
2023/07/26 01:15:30;;;;;;;7.05;4.47;;;;;;;14.38;88.76;97680.41;5084496;28;20811;-71
2023/07/26 01:18:11;;;;;;;6.32;4.70;;;;;;;14.51;88.35;97687.09;5060754;28;20502;-72
2023/07/26 01:20:37;;;;;;;7.88;4.70;;;;;;;14.52;87.83;97677.84;5083103;28;20052;-73
2023/07/26 01:23:02;;;;;;;6.53;4.00;;;;;;;14.37;86.96;97691.53;5082782;28;20062;-71
2023/07/26 01:25:28;;;;;;;5.95;4.53;;;;;;;14.42;87.00;97688.78;5086273;28;20044;-72
2023/07/26 01:27:53;;;;;;;8.88;4.80;;;;;;;14.45;87.54;97683.59;5066840;28;20111;-73
2023/07/26 01:30:19;;;;;;;8.40;4.93;;;;;;;13.99;88.55;97701.19;5078671;28;20040;-72
2023/07/26 01:32:45;;;;;;;9.23;4.55;;;;;;;14.32;88.78;97695.06;5058162;28;20017;-72
2023/07/26 01:35:11;;;;;;;6.88;4.63;;;;;;;14.50;87.20;97702.53;5083386;28;20035;-71
2023/07/26 01:37:37;;;;;;;9.73;4.88;;;;;;;14.40;87.07;97696.34;5066100;28;20020;-72
2023/07/26 01:40:04;;;;;;;5.95;4.80;;;;;;;14.26;87.43;97700.78;5060323;28;20093;-72
2023/07/26 01:42:30;;;;;;;5.95;4.50;;;;;;;14.29;87.77;97698.31;5078168;28;20047;-73
2023/07/26 01:45:01;;;;;;;7.25;4.60;;;;;;;14.25;88.14;97693.72;5063743;28;20025;-72
2023/07/26 01:47:27;;;;;;;6.15;4.25;;;;;;;14.41;88.04;97703.41;5059211;28;20089;-72
2023/07/26 01:49:52;;;;;;;5.95;4.25;;;;;;;14.31;87.79;97703.47;5043588;28;20024;-74
2023/07/26 01:52:17;;;;;;;6.65;4.10;;;;;;;14.64;86.67;97701.88;5077747;28;20055;-73
2023/07/26 01:54:43;;;;;;;8.15;4.40;;;;;;;14.16;87.67;97700.81;5083435;28;20486;-73
2023/07/26 01:57:08;;;;;;;11.68;5.10;;;;;;;14.03;89.25;97699.53;5083070;28;20070;-73
2023/07/26 01:59:34;;;;;;;7.72;4.82;;;;;;;13.99;88.70;97711.19;5059617;28;20035;-73
2023/07/26 02:01:59;;;;;;;8.32;5.00;;;;;;;14.08;88.46;97704.91;5061760;28;20037;-76
2023/07/26 02:04:25;;;;;;;8.52;5.20;;;;;;;13.82;89.76;97722.34;5088624;28;20035;-74
2023/07/26 02:06:51;;;;;;;8.50;4.90;;;;;;;13.64;92.42;97721.06;5078906;28;20036;-72
2023/07/26 02:09:16;;;;;;;8.98;5.35;;;;;;;13.53;92.96;97724.91;5083686;28;20029;-73
2023/07/26 02:11:41;;;;;;;7.32;5.40;;;;;;;13.48;93.20;97727.63;5082156;28;20126;-72
2023/07/26 02:14:07;;;;;;;8.10;6.10;;;;;;;13.68;93.22;97737.56;5060127;28;20030;-72
2023/07/26 02:16:32;;;;;;;7.90;5.70;;;;;;;13.70;92.17;97730.78;5078685;28;20071;-72
2023/07/26 02:18:58;;;;;;;9.25;5.50;;;;;;;13.57;91.41;97739.50;5066893;28;20074;-72
2023/07/26 02:21:23;;;;;;;8.18;5.28;;;;;;;13.44;91.89;97731.16;5081946;28;20417;-72
2023/07/26 02:23:48;;;;;;;9.07;5.57;;;;;;;13.41;93.02;97739.81;5049322;28;20021;-72
2023/07/26 02:26:14;;;;;;;8.93;5.00;;;;;;;13.42;92.37;97742.22;5062136;28;20036;-72
2023/07/26 02:28:40;;;;;;;7.45;4.50;;;;;;;13.61;90.45;97737.03;5083576;28;20024;-72
2023/07/26 02:31:06;;;;;;;6.38;4.28;;;;;;;13.51;89.27;97743.28;5065150;28;20440;-72
2023/07/26 02:33:31;;;;;;;5.38;4.75;;;;;;;13.63;89.38;97751.91;5059680;28;20530;-74
2023/07/26 02:35:59;;;;;;;6.78;4.57;;;;;;;13.47;88.67;97742.22;5041879;28;20029;-70
2023/07/26 02:38:25;;;;;;;8.07;4.90;;;;;;;13.56;88.34;97748.69;5069091;28;20024;-72
2023/07/26 02:40:50;;;;;;;11.90;4.60;;;;;;;13.55;87.70;97748.97;5068638;28;20592;-72
2023/07/26 02:43:15;;;;;;;6.70;3.85;;;;;;;13.39;87.40;97740.09;5080251;28;20023;-73
2023/07/26 02:45:42;;;;;;;7.38;3.92;;;;;;;13.50;86.97;97757.91;5083720;28;20036;-72
2023/07/26 02:48:07;;;;;;;5.50;4.00;;;;;;;13.51;86.74;97753.31;5050233;28;20021;-72
2023/07/26 02:50:33;;;;;;;8.38;3.85;;;;;;;13.59;86.71;97756.25;5059378;28;20040;-72
2023/07/26 02:52:59;;;;;;;4.50;4.03;;;;;;;13.47;86.86;97755.75;5063305;28;20049;-72
2023/07/26 02:55:24;;;;;;;4.90;3.80;;;;;;;13.30;86.54;97746.31;5045391;28;20507;-71
2023/07/26 02:57:50;;;;;;;7.18;4.25;;;;;;;13.50;86.00;97763.31;5066889;28;20020;-72
2023/07/26 03:00:15;;;;;;;5.53;3.75;;;;;;;13.52;86.53;97766.56;5058466;28;20540;-73
2023/07/26 03:02:40;;;;;;;6.07;3.88;;;;;;;13.33;86.69;97762.78;5089081;28;20428;-73
2023/07/26 03:05:06;;;;;;;7.55;4.03;;;;;;;13.36;86.33;97773.06;5067493;28;20462;-72
2023/07/26 03:07:31;;;;;;;10.88;3.88;;;;;;;13.41;86.15;97778.50;5079685;28;20035;-72
2023/07/26 03:09:57;;;;;;;4.57;3.83;;;;;;;13.34;86.57;97772.53;5083860;28;20044;-72
2023/07/26 03:12:22;;;;;;;7.10;3.85;;;;;;;13.55;85.68;97778.72;5066633;28;20017;-74
2023/07/26 03:14:48;;;;;;;9.07;4.45;;;;;;;13.60;85.19;97774.13;5074402;28;20035;-73
2023/07/26 03:17:13;;;;;;;6.18;3.97;;;;;;;13.43;85.24;97784.44;5079461;28;20118;-72
2023/07/26 03:19:39;;;;;;;6.47;3.58;;;;;;;13.50;85.68;97779.56;5083246;28;20032;-73
2023/07/26 03:22:04;;;;;;;7.15;3.63;;;;;;;13.51;85.68;97785.78;5086594;28;20027;-73
2023/07/26 03:24:30;;;;;;;8.27;3.38;;;;;;;13.32;86.66;97790.94;5055974;28;20033;-73
2023/07/26 03:26:55;;;;;;;4.65;3.60;;;;;;;13.23;86.58;97784.47;5086457;28;20020;-73
2023/07/26 03:29:21;;;;;;;5.32;3.42;;;;;;;13.20;86.36;97797.69;5066634;28;20454;-73
2023/07/26 03:31:46;;;;;;;5.25;3.40;;;;;;;13.13;86.89;97789.88;5079243;28;20554;-72
2023/07/26 03:34:11;;;;;;;7.20;3.50;;;;;;;13.07;87.24;97796.31;5061824;28;20033;-73
2023/07/26 03:36:37;;;;;;;6.70;3.60;;;;;;;13.06;86.88;97794.72;5084458;28;20050;-73
2023/07/26 03:39:02;;;;;;;9.10;3.58;;;;;;;12.95;86.95;97787.66;5082435;28;20044;-73
2023/07/26 03:41:28;;;;;;;4.55;3.58;;;;;;;13.04;86.85;97796.88;5079104;28;20019;-73
2023/07/26 03:43:53;;;;;;;5.43;3.80;;;;;;;12.97;87.37;97793.63;5075651;28;20036;-74
2023/07/26 03:46:21;;;;;;;5.72;4.03;;;;;;;13.05;87.56;97803.88;5078934;28;20027;-72
2023/07/26 03:48:46;;;;;;;9.30;3.83;;;;;;;13.11;86.96;97808.25;5082610;28;20020;-72
2023/07/26 03:51:11;;;;;;;4.65;3.55;;;;;;;13.16;87.02;97797.44;5085621;28;20061;-73
2023/07/26 03:53:37;;;;;;;7.43;3.58;;;;;;;13.19;85.72;97799.59;5064986;28;20031;-71
2023/07/26 03:56:02;;;;;;;7.63;3.50;;;;;;;13.24;85.33;97787.94;5061902;28;20024;-70
2023/07/26 03:58:28;;;;;;;6.57;3.20;;;;;;;13.35;85.59;97808.53;5062451;28;20045;-72
2023/07/26 04:00:53;;;;;;;7.93;3.30;;;;;;;13.41;84.91;97813.66;5068540;28;20043;-71
2023/07/26 04:03:18;;;;;;;5.85;3.47;;;;;;;13.31;84.95;97813.66;5082573;28;20057;-72
2023/07/26 04:05:44;;;;;;;6.82;3.22;;;;;;;13.44;84.64;97806.88;5090777;28;20070;-72
2023/07/26 04:08:09;;;;;;;8.52;3.67;;;;;;;13.50;85.37;97820.13;5081188;28;20036;-71
2023/07/26 04:10:34;;;;;;;4.35;3.30;;;;;;;13.56;84.45;97810.13;5079675;28;20093;-72
2023/07/26 04:13:00;;;;;;;6.38;3.08;;;;;;;13.51;84.32;97813.63;5083687;28;20486;-72
2023/07/26 04:15:25;;;;;;;7.63;3.67;;;;;;;13.66;84.20;97831.75;5084989;28;20118;-72
2023/07/26 04:17:50;;;;;;;9.02;3.60;;;;;;;13.33;84.85;97835.00;5082178;28;20047;-72
2023/07/26 04:20:16;;;;;;;7.63;3.42;;;;;;;13.31;85.71;97834.47;5076844;28;20103;-72
2023/07/26 04:22:41;;;;;;;6.47;3.22;;;;;;;13.49;84.62;97837.44;5072565;28;20452;-72
2023/07/26 04:25:07;;;;;;;8.73;3.55;;;;;;;13.42;84.23;97846.94;5074246;28;20016;-73
2023/07/26 04:27:33;;;;;;;5.95;3.28;;;;;;;13.53;84.83;97853.94;5082007;28;20048;-73
2023/07/26 04:29:58;;;;;;;5.70;2.50;;;;;;;13.55;83.75;97839.06;5051322;28;20032;-73
2023/07/26 04:32:24;;;;;;;5.72;2.83;;;;;;;13.57;82.98;97845.03;5080922;28;20398;-73
2023/07/26 04:34:49;;;;;;;3.83;2.80;;;;;;;13.34;84.03;97848.28;5075020;28;20074;-73
2023/07/26 04:37:14;;;;;;;5.07;2.90;;;;;;;13.46;84.11;97854.22;5054028;28;20112;-72
2023/07/26 04:39:40;;;;;;;6.15;3.72;;;;;;;13.38;84.46;97849.34;5052683;28;20036;-72
2023/07/26 04:42:05;;;;;;;6.90;3.13;;;;;;;13.60;84.09;97855.31;5082393;28;20152;-73
2023/07/26 04:44:31;;;;;;;5.00;3.60;;;;;;;13.53;83.43;97860.19;5084786;28;20023;-73
2023/07/26 04:46:56;;;;;;;6.88;3.70;;;;;;;13.47;83.20;97861.25;5073744;28;20654;-72
2023/07/26 04:49:22;;;;;;;4.25;3.33;;;;;;;13.65;82.77;97852.56;5065338;28;20062;-72
2023/07/26 04:51:47;;;;;;;6.65;3.28;;;;;;;13.63;83.55;97860.16;5074743;28;20033;-72
2023/07/26 04:54:12;;;;;;;4.95;3.03;;;;;;;13.74;83.30;97867.19;5055698;28;20628;-73
2023/07/26 04:56:38;;;;;;;7.20;3.58;;;;;;;13.53;83.41;97854.78;5062677;28;20059;-73
2023/07/26 04:59:03;;;;;;;6.53;3.60;;;;;;;13.91;82.33;97860.69;5067429;28;20035;-72
2023/07/26 05:01:28;;;;;;;4.82;3.10;;;;;;;14.15;81.02;97857.09;5078716;28;20032;-73
2023/07/26 05:03:54;;;;;;;5.55;3.33;;;;;;;14.11;81.61;97868.75;5077083;28;20036;-73
2023/07/26 05:06:19;;;;;;;5.05;3.45;;;;;;;14.24;81.30;97870.88;5083827;28;20107;-72
2023/07/26 05:08:47;;;;;;;45.33;29.83;;;;;;;14.27;82.01;97870.31;5085347;28;20371;-73
2023/07/26 05:11:12;;;;;;;18.55;11.75;;;;;;;14.18;80.86;97866.56;5070460;28;20399;-73
2023/07/26 05:13:38;;;;;;;17.02;9.73;;;;;;;14.23;80.24;97863.84;5071909;28;20024;-73
2023/07/26 05:16:03;;;;;;;46.08;25.73;;;;;;;14.13;80.29;97863.88;5082227;28;20079;-72
2023/07/26 05:18:28;;;;;;;18.45;10.38;;;;;;;14.15;80.76;97867.09;5084216;28;20552;-74
2023/07/26 05:20:54;;;;;;;44.47;23.35;;;;;;;13.95;81.06;97870.69;5078687;28;20043;-74
2023/07/26 05:23:19;;;;;;;80.13;40.47;;;;;;;14.06;80.81;97874.16;5075803;28;20021;-74
2023/07/26 05:25:44;;;;;;;9.40;4.47;;;;;;;14.08;80.88;97882.81;5079953;28;20043;-73
2023/07/26 05:28:10;;;;;;;4.25;2.65;;;;;;;14.42;78.22;97881.16;5041132;28;20052;-73
2023/07/26 05:30:40;;;;;;;7.80;2.88;;;;;;;14.03;79.00;97885.53;5084334;28;20076;-75
2023/07/26 05:33:06;;;;;;;5.63;2.72;;;;;;;14.24;78.30;97882.50;5083939;28;20020;-75
2023/07/26 05:35:32;;;;;;;4.88;2.75;;;;;;;14.22;78.76;97886.59;5078056;28;20040;-75
2023/07/26 05:37:57;;;;;;;5.57;3.17;;;;;;;14.08;78.39;97888.25;5076779;28;20039;-75
2023/07/26 05:40:22;;;;;;;5.63;3.10;;;;;;;14.22;79.02;97895.53;5062920;28;20029;-75
2023/07/26 05:42:48;;;;;;;6.05;2.78;;;;;;;14.15;79.66;97889.59;5066778;28;20459;-75
2023/07/26 05:45:13;;;;;;;5.22;3.13;;;;;;;14.15;80.06;97888.75;5060448;28;20047;-75
2023/07/26 05:47:38;;;;;;;3.92;2.90;;;;;;;13.94;80.22;97892.59;5057316;28;20027;-75
2023/07/26 05:50:06;;;;;;;4.75;3.10;;;;;;;14.22;79.53;97889.28;5083324;28;20397;-75
2023/07/26 05:52:31;;;;;;;5.82;2.92;;;;;;;14.17;79.83;97897.44;5050232;28;20020;-73
2023/07/26 05:54:57;;;;;;;5.53;3.17;;;;;;;13.94;79.95;97898.00;5060501;28;20043;-75
2023/07/26 05:57:22;;;;;;;3.83;2.80;;;;;;;14.13;79.64;97899.06;5059791;28;20027;-75
2023/07/26 05:59:47;;;;;;;6.32;3.20;;;;;;;14.07;80.63;97897.47;5084733;28;20044;-76
2023/07/26 06:02:13;;;;;;;4.97;2.72;;;;;;;14.09;80.50;97895.28;5050400;28;20020;-75
2023/07/26 06:04:39;;;;;;;3.10;2.80;;;;;;;14.26;78.14;97896.59;5046390;28;20036;-75
2023/07/26 06:07:04;;;;;;;5.95;2.50;;;;;;;14.43;78.44;97907.13;5076021;28;20039;-75
2023/07/26 06:09:30;;;;;;;6.22;2.75;;;;;;;14.63;77.27;97901.66;5076455;28;20516;-75
2023/07/26 06:11:55;;;;;;;3.95;2.50;;;;;;;14.63;77.61;97915.22;5077249;28;20398;-74
2023/07/26 06:14:21;;;;;;;7.63;3.10;;;;;;;14.56;76.79;97917.41;5087569;28;20040;-76
2023/07/26 06:16:46;;;;;;;6.28;2.80;;;;;;;14.93;76.83;97914.25;5069545;28;20020;-74
2023/07/26 06:19:12;;;;;;;6.60;2.97;;;;;;;15.34;75.40;97907.50;5080575;28;20047;-75
2023/07/26 06:21:38;;;;;;;5.72;2.47;;;;;;;15.04;74.38;97908.50;5081879;28;20024;-74
2023/07/26 06:24:03;;;;;;;6.90;2.80;;;;;;;15.36;72.37;97910.72;5085220;28;20260;-74
2023/07/26 06:26:29;;;;;;;3.67;2.65;;;;;;;15.59;73.54;97911.97;5087547;28;20054;-74
2023/07/26 06:28:54;;;;;;;5.68;2.60;;;;;;;15.66;72.04;97920.63;5081572;28;20390;-75
2023/07/26 06:31:20;;;;;;;3.45;2.30;;;;;;;15.26;71.23;97915.44;5080514;28;20107;-74
2023/07/26 06:33:45;;;;;;;4.15;2.28;;;;;;;15.17;72.71;97917.91;5086721;28;20036;-74
2023/07/26 06:36:10;;;;;;;4.05;2.50;;;;;;;15.71;70.94;97912.41;5074131;28;20028;-74
2023/07/26 06:38:36;;;;;;;4.55;2.40;;;;;;;15.43;72.97;97911.22;5064362;28;20078;-74
2023/07/26 06:41:01;;;;;;;3.35;2.20;;;;;;;15.43;72.51;97923.97;5063402;28;20035;-74
2023/07/26 06:43:27;;;;;;;4.22;2.63;;;;;;;15.34;72.07;97912.09;5077768;28;20123;-74
2023/07/26 06:45:52;;;;;;;5.50;2.80;;;;;;;15.45;71.18;97913.72;5062903;28;20032;-76
2023/07/26 06:48:18;;;;;;;3.75;2.13;;;;;;;15.46;71.97;97915.31;5058154;28;20040;-76
2023/07/26 06:50:44;;;;;;;6.03;2.30;;;;;;;15.18;71.21;97920.34;5055262;28;20024;-76
2023/07/26 06:53:09;;;;;;;6.00;2.40;;;;;;;15.36;70.36;97910.72;5055133;28;20034;-77
2023/07/26 06:55:35;;;;;;;4.63;2.25;;;;;;;15.51;69.20;97916.09;5070742;28;20103;-76
2023/07/26 06:58:01;;;;;;;4.90;2.20;;;;;;;16.03;68.91;97915.41;5085955;28;20064;-76
2023/07/26 07:00:26;;;;;;;2.60;2.00;;;;;;;15.31;69.39;97909.97;5054692;28;20075;-75
2023/07/26 07:02:56;;;;;;;5.38;2.10;;;;;;;15.57;68.21;97906.00;5072972;28;20041;-75
2023/07/26 07:05:22;;;;;;;3.28;2.10;;;;;;;15.56;67.99;97926.09;5073121;28;20538;-74
2023/07/26 07:07:47;;;;;;;4.18;2.05;;;;;;;15.98;67.50;97929.03;5056197;28;20112;-76
2023/07/26 07:10:12;;;;;;;2.60;1.60;;;;;;;16.19;66.92;97927.75;5056529;28;20035;-76
2023/07/26 07:12:38;;;;;;;2.22;1.60;;;;;;;16.35;66.11;97923.75;5056311;28;20478;-76
2023/07/26 07:15:03;;;;;;;4.18;1.75;;;;;;;16.11;63.64;97933.78;5039815;28;20291;-75
2023/07/26 07:17:29;;;;;;;2.05;1.80;;;;;;;15.76;63.50;97942.22;5065561;28;20071;-75
2023/07/26 07:19:54;;;;;;;2.92;2.00;;;;;;;16.16;63.73;97939.16;5033392;28;20028;-72
2023/07/26 07:22:21;;;;;;;2.72;1.52;;;;;;;15.78;65.35;97931.91;5052540;28;20017;-70
2023/07/26 07:24:46;;;;;;;6.07;2.10;;;;;;;15.79;66.19;97926.19;5050154;28;20115;-71
2023/07/26 07:27:12;;;;;;;4.28;2.08;;;;;;;15.82;65.94;97938.41;5052613;28;20428;-71
2023/07/26 07:29:37;;;;;;;4.05;2.10;;;;;;;16.05;65.08;97937.66;5052377;28;20698;-71
2023/07/26 07:32:03;;;;;;;4.10;1.80;;;;;;;15.97;66.94;97946.41;5075244;28;20035;-70
2023/07/26 07:34:28;;;;;;;2.40;1.80;;;;;;;15.60;64.68;97935.31;5093624;28;20036;-70
2023/07/26 07:36:53;;;;;;;3.33;2.15;;;;;;;15.58;64.78;97942.91;5092815;28;20161;-75
2023/07/26 07:39:19;;;;;;;2.33;1.38;;;;;;;15.70;64.48;97937.94;5076461;28;20035;-75
2023/07/26 07:41:44;;;;;;;3.45;1.60;;;;;;;15.59;65.24;97947.28;5063017;28;20415;-75
2023/07/26 07:44:09;;;;;;;3.90;2.20;;;;;;;15.75;66.58;97946.06;5080466;28;20036;-74
2023/07/26 07:46:35;;;;;;;4.20;1.77;;;;;;;16.05;65.51;97945.81;5049584;28;20106;-75
2023/07/26 07:49:00;;;;;;;4.60;2.03;;;;;;;15.65;66.27;97951.56;5048111;28;20068;-74
2023/07/26 07:51:26;;;;;;;3.03;1.77;;;;;;;15.62;66.91;97958.34;5074659;28;20049;-75
2023/07/26 07:53:51;;;;;;;5.72;2.30;;;;;;;15.63;66.91;97954.56;5044101;28;20044;-74
2023/07/26 07:56:16;;;;;;;5.95;2.08;;;;;;;15.61;65.56;97958.66;5084278;28;20048;-75
2023/07/26 07:58:42;;;;;;;3.42;2.08;;;;;;;15.44;66.39;97955.47;5084023;28;20110;-74
2023/07/26 08:01:07;;;;;;;2.78;1.80;;;;;;;15.33;66.03;97953.91;5062070;28;20069;-75
2023/07/26 08:03:33;;;;;;;3.65;2.00;;;;;;;15.46;65.77;97950.59;5044152;28;20402;-75
2023/07/26 08:05:59;;;;;;;7.13;2.30;;;;;;;15.32;67.41;97966.66;5085616;28;20023;-75
2023/07/26 08:08:24;;;;;;;4.25;1.25;;;;;;;15.17;68.10;97972.97;5055405;28;20040;-75
2023/07/26 08:10:50;;;;;;;63.08;9.20;;;;;;;15.20;69.76;97972.44;5059500;28;20016;-75
2023/07/26 08:13:15;;;;;;;80.72;8.27;;;;;;;15.12;71.43;97967.56;5081303;28;20040;-75
2023/07/26 08:15:41;;;;;;;7.22;6.57;;;;;;;14.84;73.35;97981.78;5069152;28;20099;-74
2023/07/26 08:18:06;;;;;;;11.00;9.65;;;;;;;14.51;77.59;97969.72;5038727;28;20040;-75
2023/07/26 08:20:33;;;;;;;6.97;1.80;;;;;;;14.21;78.39;97979.78;5089535;28;20098;-76
2023/07/26 08:22:59;;;;;;;4.55;2.38;;;;;;;14.11;80.08;97985.19;5043880;28;20033;-75
2023/07/26 08:25:24;;;;;;;9.48;2.83;;;;;;;14.38;81.11;97985.72;5036897;28;20029;-75
2023/07/26 08:27:49;;;;;;;6.28;2.50;;;;;;;14.26;81.83;97985.19;5051373;28;20632;-73
2023/07/26 08:30:15;;;;;;;3.65;2.22;;;;;;;14.10;80.87;97983.56;5049722;28;20650;-75
2023/07/26 08:32:40;;;;;;;5.78;2.00;;;;;;;14.07;82.83;97962.47;5067620;28;20043;-75
2023/07/26 08:35:06;;;;;;;4.93;2.20;;;;;;;14.51;82.79;97974.34;5060366;28;20099;-74
2023/07/26 08:37:31;;;;;;;2.75;1.85;;;;;;;14.31;82.00;97979.78;5066676;28;20039;-75
2023/07/26 08:39:57;;;;;;;1.98;1.80;;;;;;;14.20;83.64;97970.00;5073431;28;20407;-75
2023/07/26 08:42:22;;;;;;;4.57;2.10;;;;;;;14.37;85.52;97978.69;5054462;28;20058;-74
2023/07/26 08:44:50;;;;;;;7.45;3.53;;;;;;;14.49;83.62;97973.81;5059565;28;20480;-75
2023/07/26 08:47:15;;;;;;;4.68;4.00;;;;;;;14.70;84.48;97971.84;5064115;28;20499;-75
2023/07/26 08:49:41;;;;;;;3.60;2.85;;;;;;;14.64;82.89;97973.75;5056737;28;20046;-75
2023/07/26 08:52:07;;;;;;;8.07;3.13;;;;;;;14.67;81.71;97967.78;5059914;28;20086;-75
2023/07/26 08:54:32;;;;;;;4.35;3.95;;;;;;;14.78;82.75;97974.78;5053956;28;20048;-76
2023/07/26 08:56:58;;;;;;;3.75;3.08;;;;;;;14.81;82.42;97966.09;5054633;28;20528;-75
2023/07/26 08:59:24;;;;;;;3.47;2.80;;;;;;;15.26;81.55;97975.13;5067867;28;20020;-74
2023/07/26 09:01:50;;;;;;;5.30;2.88;;;;;;;15.42;80.92;97968.50;5048476;28;20032;-75
2023/07/26 09:04:16;;;;;;;6.45;2.80;;;;;;;15.17;82.04;97966.75;5060976;28;20024;-75
2023/07/26 09:06:41;;;;;;;3.38;2.55;;;;;;;15.21;80.65;97957.78;5043654;28;20033;-74
2023/07/26 09:09:06;;;;;;;4.22;2.30;;;;;;;15.16;79.97;97965.94;5068432;28;20150;-76
2023/07/26 09:11:33;;;;;;;4.65;2.35;;;;;;;15.21;80.64;97962.41;5050864;28;20056;-75
2023/07/26 09:13:59;;;;;;;5.15;3.03;;;;;;;15.67;82.37;97952.91;5085833;28;20024;-71
2023/07/26 09:16:31;;;;;;;4.95;3.13;;;;;;;15.31;79.82;97956.09;5091901;28;20044;-75
2023/07/26 09:19:04;;;;;;;3.42;2.33;;;;;;;15.14;78.08;97964.59;5051866;28;20064;-75
2023/07/26 09:21:31;;;;;;;3.60;2.65;;;;;;;15.10;77.69;97961.63;5059152;28;20050;-74
2023/07/26 09:23:57;;;;;;;2.88;1.60;;;;;;;14.79;81.16;97965.56;5058987;28;20040;-75
2023/07/26 09:26:41;;;;;;;2.70;1.80;;;;;;;14.71;79.94;97968.84;5063682;28;20044;-74
2023/07/26 09:29:11;;;;;;;1.65;1.55;;;;;;;14.94;79.94;97965.50;5071203;28;20032;-75
2023/07/26 09:31:42;;;;;;;3.22;1.90;;;;;;;14.38;82.15;97964.03;5050767;28;20048;-75
2023/07/26 09:34:14;;;;;;;3.05;1.85;;;;;;;14.38;82.57;97964.03;5081110;28;20043;-75
2023/07/26 09:36:50;;;;;;;3.10;1.85;;;;;;;14.43;82.79;97961.34;5055837;28;20032;-74
2023/07/26 09:39:16;;;;;;;6.05;2.00;;;;;;;14.53;83.11;97972.16;5067294;28;20036;-75
2023/07/26 09:41:45;;;;;;;3.90;2.50;;;;;;;14.79;84.94;97965.56;5090805;28;20020;-75
2023/07/26 09:44:21;;;;;;;6.45;2.20;;;;;;;14.59;84.89;97971.03;5057881;28;20570;-75
2023/07/26 09:46:57;;;;;;;4.10;2.05;;;;;;;14.69;83.93;97962.88;5062349;28;20055;-75
2023/07/26 09:49:24;;;;;;;3.03;1.98;;;;;;;14.19;82.49;97979.25;5074193;28;20044;-75
2023/07/26 09:51:54;;;;;;;3.58;1.52;;;;;;;13.86;83.98;98003.06;5034027;28;20114;-75
2023/07/26 09:54:21;;;;;;;4.05;2.00;;;;;;;13.35;84.60;98020.28;5049710;28;20123;-75
2023/07/26 09:56:47;;;;;;;4.88;2.30;;;;;;;13.31;85.98;98023.78;5063676;28;20026;-75
2023/07/26 09:59:13;;;;;;;3.38;2.03;;;;;;;13.05;85.95;98026.41;5090091;28;20082;-74
2023/07/26 10:01:41;;;;;;;3.53;2.58;;;;;;;12.63;88.29;98065.31;5090653;28;20012;-74
2023/07/26 10:04:14;;;;;;;2.78;1.77;;;;;;;11.65;91.71;98074.72;5090031;28;20043;-74
2023/07/26 10:06:41;;;;;;;2.13;1.73;;;;;;;11.32;92.96;98101.88;5056753;28;20036;-75
2023/07/26 10:09:09;;;;;;;3.63;2.78;;;;;;;11.13;96.76;98108.63;5052117;28;20025;-74
2023/07/26 10:11:35;;;;;;;3.60;2.50;;;;;;;10.83;95.71;98120.63;5062384;28;20441;-74
2023/07/26 10:14:02;;;;;;;6.10;2.33;;;;;;;10.62;96.36;98094.44;5054127;28;20028;-73
2023/07/26 10:16:28;;;;;;;2.97;2.17;;;;;;;10.81;95.94;98106.59;5058703;28;20048;-75
2023/07/26 10:18:56;;;;;;;2.90;2.22;;;;;;;10.69;94.54;98087.00;5047383;28;20024;-75
2023/07/26 10:21:21;;;;;;;3.00;2.28;;;;;;;10.88;94.88;98085.66;5033247;28;20071;-74
2023/07/26 10:23:48;;;;;;;3.60;2.38;;;;;;;11.10;94.93;98073.03;5080783;28;20065;-75
2023/07/26 10:26:15;;;;;;;2.47;2.28;;;;;;;11.27;92.65;98074.84;5049764;28;20034;-75
2023/07/26 10:28:41;;;;;;;13.07;12.23;;;;;;;11.22;91.48;98080.19;5048443;28;20135;-75
2023/07/26 10:31:06;;;;;;;5.68;5.18;;;;;;;11.43;92.77;98087.44;5051007;28;20041;-75
2023/07/26 10:33:32;;;;;;;8.30;7.35;;;;;;;11.59;90.41;98083.84;5072019;28;20024;-75
2023/07/26 10:36:02;;;;;;;29.17;26.20;;;;;;;11.71;90.10;98096.16;5089976;28;20044;-75
2023/07/26 10:38:27;;;;;;;5.43;4.88;;;;;;;12.04;93.34;98073.50;5073077;28;20020;-75
2023/07/26 10:40:53;;;;;;;4.60;3.80;;;;;;;11.51;90.53;98089.69;5073094;28;20039;-75
2023/07/26 10:43:24;;;;;;;6.10;4.88;;;;;;;11.91;93.07;98089.31;5089483;28;20027;-74
2023/07/26 10:45:53;;;;;;;5.63;4.60;;;;;;;12.31;93.23;98068.91;5077500;28;20090;-75
2023/07/26 10:48:27;;;;;;;5.03;4.63;;;;;;;12.77;91.92;98061.09;5049457;28;20024;-75
2023/07/26 10:51:31;;;;;;;5.93;4.65;;;;;;;12.93;91.11;98066.31;5043757;28;20060;-75
2023/07/26 10:53:58;;;;;;;4.32;3.92;;;;;;;13.03;89.85;98050.16;5046472;28;20044;-75
2023/07/26 10:56:24;;;;;;;5.28;3.92;;;;;;;12.90;88.48;98068.75;5035721;28;20091;-75
2023/07/26 10:58:57;;;;;;;3.30;3.00;;;;;;;12.84;84.92;98061.66;5051861;28;20106;-75
2023/07/26 11:01:35;;;;;;;3.15;2.42;;;;;;;12.71;83.89;98062.97;5073392;28;20475;-75
2023/07/26 11:04:01;;;;;;;3.90;2.80;;;;;;;12.68;83.39;98062.66;5054641;28;20410;-75
2023/07/26 11:06:55;;;;;;;2.97;2.67;;;;;;;13.09;84.51;98053.75;5093195;28;20024;-75
2023/07/26 11:09:25;;;;;;;4.00;3.38;;;;;;;13.52;85.10;98053.34;5067546;28;20047;-75
2023/07/26 11:11:54;;;;;;;2.47;2.28;;;;;;;13.60;81.40;98044.72;5072978;28;20037;-75
2023/07/26 11:14:20;;;;;;;3.70;2.80;;;;;;;14.28;82.87;98034.50;5050284;28;20037;-75
2023/07/26 11:16:45;;;;;;;4.28;3.13;;;;;;;14.54;82.53;98036.91;5045241;28;20094;-75
2023/07/26 11:19:11;;;;;;;3.75;3.38;;;;;;;14.59;82.87;98025.25;5042957;28;20066;-75
2023/07/26 11:21:36;;;;;;;4.07;3.00;;;;;;;14.49;82.14;98025.28;5056062;28;20036;-75
2023/07/26 11:24:02;;;;;;;39.53;7.68;;;;;;;14.65;82.64;98024.16;5039321;28;20021;-75
2023/07/26 11:26:27;;;;;;;3.00;2.70;;;;;;;15.07;79.45;98015.63;5054781;28;20106;-74
2023/07/26 11:28:57;;;;;;;2.63;2.30;;;;;;;15.09;78.38;98016.16;5055329;28;20025;-75